sensor_id;sensor_type;location;lat;lon;timestamp;pressure;altitude;pressure_sealevel;temperature;humidity
11347;BME280;5728;42.722;23.258;2023-09-18T00:00:15;95239.53;;;17.72;100.00
11347;BME280;5728;42.722;23.258;2023-09-18T00:02:41;95242.31;;;17.92;100.00
11347;BME280;5728;42.722;23.258;2023-09-18T00:05:08;95232.22;;;17.80;99.63
11347;BME280;5728;42.722;23.258;2023-09-18T00:07:35;95223.56;;;17.78;98.71
11347;BME280;5728;42.722;23.258;2023-09-18T00:10:02;95228.66;;;17.58;100.00
11347;BME280;5728;42.722;23.258;2023-09-18T00:12:29;95219.19;;;17.54;100.00
11347;BME280;5728;42.722;23.258;2023-09-18T00:14:57;95220.06;;;17.54;99.60
11347;BME280;5728;42.722;23.258;2023-09-18T00:17:23;95230.75;;;17.73;98.31
11347;BME280;5728;42.722;23.258;2023-09-18T00:19:50;95222.72;;;17.53;98.67
11347;BME280;5728;42.722;23.258;2023-09-18T00:22:17;95223.00;;;17.19;100.00
11347;BME280;5728;42.722;23.258;2023-09-18T00:24:44;95234.13;;;16.99;100.00
11347;BME280;5728;42.722;23.258;2023-09-18T00:27:10;95234.44;;;17.16;100.00
11347;BME280;5728;42.722;23.258;2023-09-18T00:29:38;95222.34;;;17.37;100.00
11347;BME280;5728;42.722;23.258;2023-09-18T00:32:06;95224.09;;;17.63;100.00
11347;BME280;5728;42.722;23.258;2023-09-18T00:34:33;95223.41;;;17.58;99.80
11347;BME280;5728;42.722;23.258;2023-09-18T00:37:00;95228.81;;;17.78;98.21
11347;BME280;5728;42.722;23.258;2023-09-18T00:39:27;95224.44;;;17.78;97.86
11347;BME280;5728;42.722;23.258;2023-09-18T00:41:53;95227.72;;;17.34;98.03
11347;BME280;5728;42.722;23.258;2023-09-18T00:44:20;95229.38;;;16.84;99.22
11347;BME280;5728;42.722;23.258;2023-09-18T00:46:47;95232.13;;;16.81;100.00
11347;BME280;5728;42.722;23.258;2023-09-18T00:49:16;95236.03;;;16.68;100.00
11347;BME280;5728;42.722;23.258;2023-09-18T00:51:44;95235.19;;;16.09;100.00
11347;BME280;5728;42.722;23.258;2023-09-18T00:54:14;95239.25;;;16.19;100.00
11347;BME280;5728;42.722;23.258;2023-09-18T00:56:43;95240.06;;;16.49;100.00
11347;BME280;5728;42.722;23.258;2023-09-18T00:59:10;95238.38;;;16.19;100.00
11347;BME280;5728;42.722;23.258;2023-09-18T01:01:39;95240.38;;;16.40;100.00
11347;BME280;5728;42.722;23.258;2023-09-18T01:04:07;95252.84;;;16.61;100.00
11347;BME280;5728;42.722;23.258;2023-09-18T01:06:36;95245.16;;;16.83;100.00
11347;BME280;5728;42.722;23.258;2023-09-18T01:09:03;95243.88;;;16.96;100.00
11347;BME280;5728;42.722;23.258;2023-09-18T01:11:43;95243.50;;;16.80;100.00
11347;BME280;5728;42.722;23.258;2023-09-18T01:14:16;95248.59;;;16.57;100.00
11347;BME280;5728;42.722;23.258;2023-09-18T01:16:49;95246.59;;;16.65;100.00
11347;BME280;5728;42.722;23.258;2023-09-18T01:19:35;95258.25;;;16.26;100.00
11347;BME280;5728;42.722;23.258;2023-09-18T01:22:05;95254.66;;;15.99;100.00
11347;BME280;5728;42.722;23.258;2023-09-18T01:24:34;95250.28;;;16.29;100.00
11347;BME280;5728;42.722;23.258;2023-09-18T01:27:01;95239.66;;;16.06;100.00
11347;BME280;5728;42.722;23.258;2023-09-18T01:29:28;95247.59;;;16.03;100.00
11347;BME280;5728;42.722;23.258;2023-09-18T01:31:55;95246.84;;;16.28;100.00
11347;BME280;5728;42.722;23.258;2023-09-18T01:34:26;95244.59;;;16.44;100.00
11347;BME280;5728;42.722;23.258;2023-09-18T01:36:57;95241.44;;;16.04;100.00
11347;BME280;5728;42.722;23.258;2023-09-18T01:39:25;95240.81;;;16.25;100.00
11347;BME280;5728;42.722;23.258;2023-09-18T01:41:58;95241.94;;;16.45;100.00
11347;BME280;5728;42.722;23.258;2023-09-18T01:44:25;95244.75;;;16.69;100.00
11347;BME280;5728;42.722;23.258;2023-09-18T01:46:52;95248.13;;;16.72;100.00
11347;BME280;5728;42.722;23.258;2023-09-18T01:49:27;95243.41;;;16.83;100.00
11347;BME280;5728;42.722;23.258;2023-09-18T01:51:54;95245.22;;;17.07;100.00
11347;BME280;5728;42.722;23.258;2023-09-18T01:54:20;95243.63;;;17.03;100.00
11347;BME280;5728;42.722;23.258;2023-09-18T01:56:47;95244.63;;;17.26;100.00
11347;BME280;5728;42.722;23.258;2023-09-18T01:59:15;95245.81;;;17.15;100.00
11347;BME280;5728;42.722;23.258;2023-09-18T02:01:42;95246.81;;;17.38;100.00
11347;BME280;5728;42.722;23.258;2023-09-18T02:04:08;95245.91;;;17.39;100.00
11347;BME280;5728;42.722;23.258;2023-09-18T02:06:35;95255.91;;;17.54;99.49
11347;BME280;5728;42.722;23.258;2023-09-18T02:09:02;95250.75;;;17.51;98.65
11347;BME280;5728;42.722;23.258;2023-09-18T02:11:29;95243.91;;;17.47;99.23
11347;BME280;5728;42.722;23.258;2023-09-18T02:13:55;95252.13;;;17.36;99.88
11347;BME280;5728;42.722;23.258;2023-09-18T02:16:24;95247.69;;;17.64;98.55
11347;BME280;5728;42.722;23.258;2023-09-18T02:18:54;95242.44;;;17.64;98.12
11347;BME280;5728;42.722;23.258;2023-09-18T02:21:22;95247.50;;;17.69;97.21
11347;BME280;5728;42.722;23.258;2023-09-18T02:23:49;95246.38;;;17.50;98.37
11347;BME280;5728;42.722;23.258;2023-09-18T02:26:16;95242.97;;;17.74;97.94
11347;BME280;5728;42.722;23.258;2023-09-18T02:28:43;95243.50;;;17.59;98.01
11347;BME280;5728;42.722;23.258;2023-09-18T02:31:10;95251.41;;;17.82;96.38
11347;BME280;5728;42.722;23.258;2023-09-18T02:33:38;95255.00;;;17.79;96.33
11347;BME280;5728;42.722;23.258;2023-09-18T02:36:06;95241.03;;;17.79;96.02
11347;BME280;5728;42.722;23.258;2023-09-18T02:38:33;95250.63;;;18.03;95.15
11347;BME280;5728;42.722;23.258;2023-09-18T02:41:00;95250.88;;;17.97;94.81
11347;BME280;5728;42.722;23.258;2023-09-18T02:43:26;95245.47;;;18.00;95.61
11347;BME280;5728;42.722;23.258;2023-09-18T02:45:53;95256.84;;;18.01;94.88
11347;BME280;5728;42.722;23.258;2023-09-18T02:48:20;95248.34;;;17.94;95.37
11347;BME280;5728;42.722;23.258;2023-09-18T02:50:48;95256.69;;;17.80;95.36
11347;BME280;5728;42.722;23.258;2023-09-18T02:53:17;95252.06;;;17.64;96.36
11347;BME280;5728;42.722;23.258;2023-09-18T02:55:44;95263.72;;;17.80;96.63
11347;BME280;5728;42.722;23.258;2023-09-18T02:58:10;95263.16;;;17.95;95.42
11347;BME280;5728;42.722;23.258;2023-09-18T03:00:41;95258.69;;;17.74;96.09
11347;BME280;5728;42.722;23.258;2023-09-18T03:03:09;95254.50;;;17.93;95.72
11347;BME280;5728;42.722;23.258;2023-09-18T03:05:36;95260.94;;;17.84;96.41
11347;BME280;5728;42.722;23.258;2023-09-18T03:08:04;95260.72;;;17.91;95.58
11347;BME280;5728;42.722;23.258;2023-09-18T03:10:32;95264.13;;;17.93;96.01
11347;BME280;5728;42.722;23.258;2023-09-18T03:13:00;95262.75;;;18.07;95.02
11347;BME280;5728;42.722;23.258;2023-09-18T03:15:27;95264.09;;;17.94;95.17
11347;BME280;5728;42.722;23.258;2023-09-18T03:17:53;95248.69;;;18.08;94.92
11347;BME280;5728;42.722;23.258;2023-09-18T03:20:22;95258.78;;;17.96;94.28
11347;BME280;5728;42.722;23.258;2023-09-18T03:22:49;95258.16;;;17.89;94.76
11347;BME280;5728;42.722;23.258;2023-09-18T03:25:17;95248.53;;;17.90;94.90
11347;BME280;5728;42.722;23.258;2023-09-18T03:27:43;95250.91;;;17.96;94.20
11347;BME280;5728;42.722;23.258;2023-09-18T03:30:10;95241.84;;;18.04;93.68
11347;BME280;5728;42.722;23.258;2023-09-18T03:32:41;95241.03;;;17.79;94.84
11347;BME280;5728;42.722;23.258;2023-09-18T03:35:08;95246.88;;;17.87;94.72
11347;BME280;5728;42.722;23.258;2023-09-18T03:37:40;95249.28;;;17.68;95.54
11347;BME280;5728;42.722;23.258;2023-09-18T03:40:08;95241.56;;;17.64;96.43
11347;BME280;5728;42.722;23.258;2023-09-18T03:42:37;95250.50;;;17.58;96.25
11347;BME280;5728;42.722;23.258;2023-09-18T03:45:06;95245.94;;;17.63;96.10
11347;BME280;5728;42.722;23.258;2023-09-18T03:47:33;95242.09;;;17.47;96.74
11347;BME280;5728;42.722;23.258;2023-09-18T03:50:00;95235.19;;;17.45;97.83
11347;BME280;5728;42.722;23.258;2023-09-18T03:52:27;95234.13;;;17.26;98.17
11347;BME280;5728;42.722;23.258;2023-09-18T03:54:54;95237.78;;;17.21;98.51
11347;BME280;5728;42.722;23.258;2023-09-18T03:57:21;95232.72;;;17.15;99.05
11347;BME280;5728;42.722;23.258;2023-09-18T03:59:48;95233.41;;;16.94;99.55
11347;BME280;5728;42.722;23.258;2023-09-18T04:02:14;95237.75;;;16.95;100.00
11347;BME280;5728;42.722;23.258;2023-09-18T04:04:41;95225.03;;;17.11;99.60
11347;BME280;5728;42.722;23.258;2023-09-18T04:07:08;95230.44;;;17.05;100.00
11347;BME280;5728;42.722;23.258;2023-09-18T04:09:35;95238.63;;;16.96;100.00
11347;BME280;5728;42.722;23.258;2023-09-18T04:12:03;95234.69;;;16.83;100.00
11347;BME280;5728;42.722;23.258;2023-09-18T04:14:31;95235.84;;;17.00;100.00
11347;BME280;5728;42.722;23.258;2023-09-18T04:16:59;95240.75;;;17.11;99.97
11347;BME280;5728;42.722;23.258;2023-09-18T04:19:26;95239.03;;;17.10;100.00
11347;BME280;5728;42.722;23.258;2023-09-18T04:21:53;95242.34;;;17.15;100.00
11347;BME280;5728;42.722;23.258;2023-09-18T04:24:19;95253.44;;;17.23;99.94
11347;BME280;5728;42.722;23.258;2023-09-18T04:26:46;95256.16;;;17.20;99.33
11347;BME280;5728;42.722;23.258;2023-09-18T04:29:13;95257.78;;;17.24;99.73
11347;BME280;5728;42.722;23.258;2023-09-18T04:31:39;95256.69;;;17.30;99.99
11347;BME280;5728;42.722;23.258;2023-09-18T04:34:08;95262.06;;;17.27;99.39
11347;BME280;5728;42.722;23.258;2023-09-18T04:36:35;95255.09;;;17.26;99.77
11347;BME280;5728;42.722;23.258;2023-09-18T04:39:02;95261.25;;;16.98;100.00
11347;BME280;5728;42.722;23.258;2023-09-18T04:41:29;95263.75;;;17.28;100.00
11347;BME280;5728;42.722;23.258;2023-09-18T04:43:56;95264.09;;;17.43;99.58
11347;BME280;5728;42.722;23.258;2023-09-18T04:46:23;95261.31;;;17.74;97.82
11347;BME280;5728;42.722;23.258;2023-09-18T04:48:50;95250.44;;;17.60;97.45
11347;BME280;5728;42.722;23.258;2023-09-18T04:51:18;95263.84;;;18.00;95.80
11347;BME280;5728;42.722;23.258;2023-09-18T04:53:45;95256.81;;;18.02;95.59
11347;BME280;5728;42.722;23.258;2023-09-18T04:56:11;95252.19;;;18.32;94.25
11347;BME280;5728;42.722;23.258;2023-09-18T04:58:39;95256.25;;;18.17;94.27
11347;BME280;5728;42.722;23.258;2023-09-18T05:01:05;95247.81;;;18.32;94.07
11347;BME280;5728;42.722;23.258;2023-09-18T05:03:34;95256.78;;;18.25;93.71
11347;BME280;5728;42.722;23.258;2023-09-18T05:06:01;95246.88;;;18.33;92.57
11347;BME280;5728;42.722;23.258;2023-09-18T05:08:30;95252.47;;;18.24;93.27
11347;BME280;5728;42.722;23.258;2023-09-18T05:10:57;95252.19;;;18.32;93.41
11347;BME280;5728;42.722;23.258;2023-09-18T05:13:24;95257.50;;;18.54;93.42
11347;BME280;5728;42.722;23.258;2023-09-18T05:15:50;95253.59;;;18.64;92.11
11347;BME280;5728;42.722;23.258;2023-09-18T05:18:17;95260.78;;;18.82;91.59
11347;BME280;5728;42.722;23.258;2023-09-18T05:20:44;95265.13;;;18.83;91.15
11347;BME280;5728;42.722;23.258;2023-09-18T05:23:11;95264.44;;;18.78;90.95
11347;BME280;5728;42.722;23.258;2023-09-18T05:25:39;95267.19;;;18.75;91.24
11347;BME280;5728;42.722;23.258;2023-09-18T05:28:07;95269.38;;;18.64;91.77
11347;BME280;5728;42.722;23.258;2023-09-18T05:30:34;95271.09;;;18.86;90.82
11347;BME280;5728;42.722;23.258;2023-09-18T05:33:05;95271.09;;;18.86;90.46
11347;BME280;5728;42.722;23.258;2023-09-18T05:35:32;95267.94;;;19.00;89.69
11347;BME280;5728;42.722;23.258;2023-09-18T05:37:59;95264.88;;;18.89;89.56
11347;BME280;5728;42.722;23.258;2023-09-18T05:40:26;95264.38;;;19.01;89.02
11347;BME280;5728;42.722;23.258;2023-09-18T05:42:55;95264.63;;;19.17;89.11
11347;BME280;5728;42.722;23.258;2023-09-18T05:45:22;95272.25;;;19.44;87.62
11347;BME280;5728;42.722;23.258;2023-09-18T05:47:50;95269.31;;;19.72;85.97
11347;BME280;5728;42.722;23.258;2023-09-18T05:50:18;95276.63;;;19.65;85.77
11347;BME280;5728;42.722;23.258;2023-09-18T05:52:47;95282.56;;;19.70;86.01
11347;BME280;5728;42.722;23.258;2023-09-18T05:55:15;95279.50;;;19.80;86.10
11347;BME280;5728;42.722;23.258;2023-09-18T05:57:41;95281.78;;;19.68;86.16
11347;BME280;5728;42.722;23.258;2023-09-18T06:00:10;95276.34;;;19.71;86.28
11347;BME280;5728;42.722;23.258;2023-09-18T06:02:39;95271.41;;;19.84;84.62
11347;BME280;5728;42.722;23.258;2023-09-18T06:05:07;95272.81;;;19.93;85.19
11347;BME280;5728;42.722;23.258;2023-09-18T06:07:37;95275.97;;;20.01;84.91
11347;BME280;5728;42.722;23.258;2023-09-18T06:10:04;95269.66;;;19.85;84.59
11347;BME280;5728;42.722;23.258;2023-09-18T06:12:31;95278.31;;;19.87;84.15
11347;BME280;5728;42.722;23.258;2023-09-18T06:14:58;95268.19;;;19.57;85.76
11347;BME280;5728;42.722;23.258;2023-09-18T06:17:26;95270.44;;;19.66;85.97
11347;BME280;5728;42.722;23.258;2023-09-18T06:19:53;95273.78;;;19.70;85.70
11347;BME280;5728;42.722;23.258;2023-09-18T06:22:20;95278.47;;;19.84;84.88
11347;BME280;5728;42.722;23.258;2023-09-18T06:24:47;95280.16;;;20.05;84.08
11347;BME280;5728;42.722;23.258;2023-09-18T06:27:14;95277.28;;;20.11;83.98
11347;BME280;5728;42.722;23.258;2023-09-18T06:29:40;95278.13;;;20.11;83.74
11347;BME280;5728;42.722;23.258;2023-09-18T06:32:08;95280.25;;;20.22;83.49
11347;BME280;5728;42.722;23.258;2023-09-18T06:34:36;95279.63;;;20.56;82.15
11347;BME280;5728;42.722;23.258;2023-09-18T06:37:03;95282.63;;;20.48;81.21
11347;BME280;5728;42.722;23.258;2023-09-18T06:39:31;95281.84;;;20.46;81.58
11347;BME280;5728;42.722;23.258;2023-09-18T06:41:58;95281.41;;;20.55;80.83
11347;BME280;5728;42.722;23.258;2023-09-18T06:44:25;95278.47;;;20.43;81.58
11347;BME280;5728;42.722;23.258;2023-09-18T06:46:52;95283.53;;;20.84;80.47
11347;BME280;5728;42.722;23.258;2023-09-18T06:49:19;95276.91;;;20.94;79.20
11347;BME280;5728;42.722;23.258;2023-09-18T06:51:47;95281.47;;;21.10;78.98
11347;BME280;5728;42.722;23.258;2023-09-18T06:54:14;95277.53;;;20.99;78.98
11347;BME280;5728;42.722;23.258;2023-09-18T06:56:40;95284.19;;;21.27;78.12
11347;BME280;5728;42.722;23.258;2023-09-18T06:59:09;95282.63;;;21.04;79.24
11347;BME280;5728;42.722;23.258;2023-09-18T07:01:36;95281.72;;;21.41;77.60
11347;BME280;5728;42.722;23.258;2023-09-18T07:04:04;95285.16;;;21.77;76.90
11347;BME280;5728;42.722;23.258;2023-09-18T07:06:30;95271.34;;;21.72;75.82
11347;BME280;5728;42.722;23.258;2023-09-18T07:08:58;95278.34;;;21.90;74.43
11347;BME280;5728;42.722;23.258;2023-09-18T07:11:26;95281.59;;;21.95;75.13
11347;BME280;5728;42.722;23.258;2023-09-18T07:13:52;95271.41;;;22.22;74.24
11347;BME280;5728;42.722;23.258;2023-09-18T07:16:19;95277.56;;;22.22;73.49
11347;BME280;5728;42.722;23.258;2023-09-18T07:18:46;95276.41;;;22.44;73.04
11347;BME280;5728;42.722;23.258;2023-09-18T07:21:12;95278.38;;;22.73;72.07
11347;BME280;5728;42.722;23.258;2023-09-18T07:23:39;95287.06;;;22.75;71.57
11347;BME280;5728;42.722;23.258;2023-09-18T07:26:08;95278.31;;;22.90;71.09
11347;BME280;5728;42.722;23.258;2023-09-18T07:28:34;95284.59;;;22.72;71.45
11347;BME280;5728;42.722;23.258;2023-09-18T07:31:05;95293.03;;;22.78;71.07
11347;BME280;5728;42.722;23.258;2023-09-18T07:33:32;95280.09;;;23.36;68.35
11347;BME280;5728;42.722;23.258;2023-09-18T07:35:59;95276.34;;;23.40;68.84
11347;BME280;5728;42.722;23.258;2023-09-18T07:38:26;95282.50;;;23.41;68.56
11347;BME280;5728;42.722;23.258;2023-09-18T07:40:53;95272.22;;;23.51;68.62
11347;BME280;5728;42.722;23.258;2023-09-18T07:43:21;95289.34;;;23.75;67.22
11347;BME280;5728;42.722;23.258;2023-09-18T07:45:49;95282.97;;;23.32;68.23
11347;BME280;5728;42.722;23.258;2023-09-18T07:48:15;95284.34;;;23.55;67.07
11347;BME280;5728;42.722;23.258;2023-09-18T07:50:45;95277.09;;;23.42;67.49
11347;BME280;5728;42.722;23.258;2023-09-18T07:53:15;95285.69;;;23.62;67.99
11347;BME280;5728;42.722;23.258;2023-09-18T07:55:41;95278.34;;;23.96;67.48
11347;BME280;5728;42.722;23.258;2023-09-18T07:58:08;95282.22;;;24.05;66.00
11347;BME280;5728;42.722;23.258;2023-09-18T08:00:36;95282.09;;;23.63;66.15
11347;BME280;5728;42.722;23.258;2023-09-18T08:03:04;95284.56;;;23.95;66.25
11347;BME280;5728;42.722;23.258;2023-09-18T08:05:31;95275.38;;;24.17;64.80
11347;BME280;5728;42.722;23.258;2023-09-18T08:07:58;95275.47;;;24.15;65.35
11347;BME280;5728;42.722;23.258;2023-09-18T08:10:25;95281.38;;;24.34;64.29
11347;BME280;5728;42.722;23.258;2023-09-18T08:12:52;95272.28;;;24.38;64.28
11347;BME280;5728;42.722;23.258;2023-09-18T08:15:20;95275.81;;;24.67;62.83
11347;BME280;5728;42.722;23.258;2023-09-18T08:17:48;95267.91;;;24.65;63.73
11347;BME280;5728;42.722;23.258;2023-09-18T08:20:15;95268.78;;;24.80;61.99
11347;BME280;5728;42.722;23.258;2023-09-18T08:22:42;95266.31;;;24.35;63.31
11347;BME280;5728;42.722;23.258;2023-09-18T08:25:09;95260.16;;;24.62;62.37
11347;BME280;5728;42.722;23.258;2023-09-18T08:27:37;95264.91;;;24.86;62.08
11347;BME280;5728;42.722;23.258;2023-09-18T08:30:06;95255.59;;;25.07;61.17
11347;BME280;5728;42.722;23.258;2023-09-18T08:32:35;95258.53;;;25.02;60.85
11347;BME280;5728;42.722;23.258;2023-09-18T08:35:04;95259.03;;;24.81;60.96
11347;BME280;5728;42.722;23.258;2023-09-18T08:37:31;95258.28;;;24.64;61.75
11347;BME280;5728;42.722;23.258;2023-09-18T08:39:58;95251.00;;;24.82;61.05
11347;BME280;5728;42.722;23.258;2023-09-18T08:42:29;95247.16;;;25.00;60.62
11347;BME280;5728;42.722;23.258;2023-09-18T08:44:58;95251.81;;;24.97;60.16
11347;BME280;5728;42.722;23.258;2023-09-18T08:47:25;95237.16;;;25.18;59.64
11347;BME280;5728;42.722;23.258;2023-09-18T08:49:54;95236.63;;;25.40;59.03
11347;BME280;5728;42.722;23.258;2023-09-18T08:52:23;95239.63;;;25.74;58.19
11347;BME280;5728;42.722;23.258;2023-09-18T08:54:53;95235.75;;;26.05;57.49
11347;BME280;5728;42.722;23.258;2023-09-18T08:57:23;95239.72;;;26.25;56.50
11347;BME280;5728;42.722;23.258;2023-09-18T08:59:52;95232.09;;;25.93;57.14
11347;BME280;5728;42.722;23.258;2023-09-18T09:02:20;95237.91;;;26.13;56.90
11347;BME280;5728;42.722;23.258;2023-09-18T09:04:47;95235.34;;;26.24;55.98
11347;BME280;5728;42.722;23.258;2023-09-18T09:07:14;95236.53;;;26.20;55.20
11347;BME280;5728;42.722;23.258;2023-09-18T09:09:43;95226.03;;;25.91;56.82
11347;BME280;5728;42.722;23.258;2023-09-18T09:12:09;95228.44;;;26.21;56.15
11347;BME280;5728;42.722;23.258;2023-09-18T09:14:36;95221.53;;;26.44;54.84
11347;BME280;5728;42.722;23.258;2023-09-18T09:17:04;95226.88;;;27.05;53.09
11347;BME280;5728;42.722;23.258;2023-09-18T09:19:32;95217.75;;;26.84;52.02
11347;BME280;5728;42.722;23.258;2023-09-18T09:22:02;95230.41;;;27.06;51.14
11347;BME280;5728;42.722;23.258;2023-09-18T09:24:40;95216.50;;;26.77;50.77
11347;BME280;5728;42.722;23.258;2023-09-18T09:27:09;95212.41;;;26.97;51.25
11347;BME280;5728;42.722;23.258;2023-09-18T09:29:36;95218.81;;;27.31;50.72
11347;BME280;5728;42.722;23.258;2023-09-18T09:32:13;95219.66;;;27.55;49.79
11347;BME280;5728;42.722;23.258;2023-09-18T09:34:41;95212.44;;;27.20;51.04
11347;BME280;5728;42.722;23.258;2023-09-18T09:37:08;95200.63;;;26.88;51.12
11347;BME280;5728;42.722;23.258;2023-09-18T09:39:46;95215.06;;;27.57;50.01
11347;BME280;5728;42.722;23.258;2023-09-18T09:42:17;95202.84;;;27.89;47.46
11347;BME280;5728;42.722;23.258;2023-09-18T09:45:00;95211.53;;;28.15;48.39
11347;BME280;5728;42.722;23.258;2023-09-18T09:47:27;95204.50;;;28.14;46.61
11347;BME280;5728;42.722;23.258;2023-09-18T09:49:55;95202.13;;;28.22;46.25
11347;BME280;5728;42.722;23.258;2023-09-18T09:52:22;95208.78;;;28.38;46.05
11347;BME280;5728;42.722;23.258;2023-09-18T09:54:48;95193.03;;;28.58;46.51
11347;BME280;5728;42.722;23.258;2023-09-18T09:57:17;95196.22;;;28.85;45.57
11347;BME280;5728;42.722;23.258;2023-09-18T09:59:44;95203.97;;;28.99;45.10
11347;BME280;5728;42.722;23.258;2023-09-18T10:02:10;95191.09;;;28.60;44.97
11347;BME280;5728;42.722;23.258;2023-09-18T10:04:45;95187.25;;;28.64;44.06
11347;BME280;5728;42.722;23.258;2023-09-18T10:07:14;95190.47;;;29.00;43.47
11347;BME280;5728;42.722;23.258;2023-09-18T10:09:43;95193.41;;;28.86;44.43
11347;BME280;5728;42.722;23.258;2023-09-18T10:12:11;95183.78;;;29.17;43.85
11347;BME280;5728;42.722;23.258;2023-09-18T10:14:40;95176.44;;;28.76;44.37
11347;BME280;5728;42.722;23.258;2023-09-18T10:17:15;95180.56;;;29.45;43.44
11347;BME280;5728;42.722;23.258;2023-09-18T10:19:47;95183.03;;;29.37;41.99
11347;BME280;5728;42.722;23.258;2023-09-18T10:22:24;95170.28;;;29.61;42.12
11347;BME280;5728;42.722;23.258;2023-09-18T10:24:55;95172.13;;;29.29;42.43
11347;BME280;5728;42.722;23.258;2023-09-18T10:27:26;95165.13;;;29.81;42.05
11347;BME280;5728;42.722;23.258;2023-09-18T10:29:56;95158.75;;;29.93;41.13
11347;BME280;5728;42.722;23.258;2023-09-18T10:32:24;95150.00;;;29.59;41.36
11347;BME280;5728;42.722;23.258;2023-09-18T10:34:53;95153.25;;;29.42;41.44
11347;BME280;5728;42.722;23.258;2023-09-18T10:37:22;95148.53;;;29.34;41.40
11347;BME280;5728;42.722;23.258;2023-09-18T10:39:49;95146.16;;;29.20;42.29
11347;BME280;5728;42.722;23.258;2023-09-18T10:42:18;95137.44;;;28.96;42.69
11347;BME280;5728;42.722;23.258;2023-09-18T10:44:48;95141.22;;;29.68;41.68
11347;BME280;5728;42.722;23.258;2023-09-18T10:47:17;95134.72;;;30.23;40.45
11347;BME280;5728;42.722;23.258;2023-09-18T10:49:45;95142.47;;;30.26;41.17
11347;BME280;5728;42.722;23.258;2023-09-18T10:52:12;95139.03;;;30.35;38.81
11347;BME280;5728;42.722;23.258;2023-09-18T10:54:40;95131.00;;;29.94;39.20
11347;BME280;5728;42.722;23.258;2023-09-18T10:57:07;95130.50;;;30.00;39.37
11347;BME280;5728;42.722;23.258;2023-09-18T10:59:33;95130.50;;;29.79;39.23
11347;BME280;5728;42.722;23.258;2023-09-18T11:02:02;95123.97;;;30.13;38.86
11347;BME280;5728;42.722;23.258;2023-09-18T11:04:32;95116.69;;;30.25;38.60
11347;BME280;5728;42.722;23.258;2023-09-18T11:07:02;95128.69;;;30.51;38.39
11347;BME280;5728;42.722;23.258;2023-09-18T11:09:31;95123.47;;;30.29;38.52
11347;BME280;5728;42.722;23.258;2023-09-18T11:12:03;95114.41;;;30.20;38.89
11347;BME280;5728;42.722;23.258;2023-09-18T11:14:42;95114.34;;;29.69;39.32
11347;BME280;5728;42.722;23.258;2023-09-18T11:17:31;95123.31;;;30.21;38.32
11347;BME280;5728;42.722;23.258;2023-09-18T11:20:08;95104.72;;;29.99;38.23
11347;BME280;5728;42.722;23.258;2023-09-18T11:22:37;95107.81;;;28.99;41.12
11347;BME280;5728;42.722;23.258;2023-09-18T11:25:37;95109.47;;;29.75;39.69
11347;BME280;5728;42.722;23.258;2023-09-18T11:28:04;95095.25;;;30.36;38.38
11347;BME280;5728;42.722;23.258;2023-09-18T11:30:34;95100.41;;;30.68;38.12
11347;BME280;5728;42.722;23.258;2023-09-18T11:33:03;95101.81;;;30.72;37.74
11347;BME280;5728;42.722;23.258;2023-09-18T11:35:32;95095.78;;;30.79;37.79
11347;BME280;5728;42.722;23.258;2023-09-18T11:38:03;95092.19;;;31.00;37.06
11347;BME280;5728;42.722;23.258;2023-09-18T11:40:33;95086.75;;;30.71;37.94
11347;BME280;5728;42.722;23.258;2023-09-18T11:43:20;95086.66;;;30.42;37.08
11347;BME280;5728;42.722;23.258;2023-09-18T11:45:51;95088.00;;;28.70;41.08
11347;BME280;5728;42.722;23.258;2023-09-18T11:48:19;95084.25;;;28.72;41.16
11347;BME280;5728;42.722;23.258;2023-09-18T11:50:48;95082.97;;;29.51;39.29
11347;BME280;5728;42.722;23.258;2023-09-18T11:53:17;95070.94;;;29.98;38.39
11347;BME280;5728;42.722;23.258;2023-09-18T11:55:45;95070.41;;;29.42;39.47
11347;BME280;5728;42.722;23.258;2023-09-18T11:58:11;95076.47;;;30.06;37.97
11347;BME280;5728;42.722;23.258;2023-09-18T12:00:39;95070.88;;;29.47;39.29
11347;BME280;5728;42.722;23.258;2023-09-18T12:03:19;95067.16;;;29.80;39.07
11347;BME280;5728;42.722;23.258;2023-09-18T12:05:56;95065.47;;;29.37;40.13
11347;BME280;5728;42.722;23.258;2023-09-18T12:08:23;95072.78;;;29.24;39.92
11347;BME280;5728;42.722;23.258;2023-09-18T12:10:51;95078.47;;;29.51;39.70
11347;BME280;5728;42.722;23.258;2023-09-18T12:13:19;95068.59;;;29.42;39.77
11347;BME280;5728;42.722;23.258;2023-09-18T12:15:46;95070.31;;;29.73;39.17
11347;BME280;5728;42.722;23.258;2023-09-18T12:18:14;95067.91;;;30.12;38.21
11347;BME280;5728;42.722;23.258;2023-09-18T12:20:48;95057.06;;;29.62;39.82
11347;BME280;5728;42.722;23.258;2023-09-18T12:23:17;95058.19;;;29.81;39.39
11347;BME280;5728;42.722;23.258;2023-09-18T12:25:45;95059.78;;;29.72;39.43
11347;BME280;5728;42.722;23.258;2023-09-18T12:28:13;95057.72;;;29.55;40.46
11347;BME280;5728;42.722;23.258;2023-09-18T12:30:41;95051.22;;;29.99;40.22
11347;BME280;5728;42.722;23.258;2023-09-18T12:33:08;95053.81;;;30.40;39.09
11347;BME280;5728;42.722;23.258;2023-09-18T12:35:36;95056.34;;;30.11;39.38
11347;BME280;5728;42.722;23.258;2023-09-18T12:38:13;95063.31;;;30.23;39.18
11347;BME280;5728;42.722;23.258;2023-09-18T12:40:42;95059.78;;;30.23;38.83
11347;BME280;5728;42.722;23.258;2023-09-18T12:43:10;95054.25;;;30.45;38.57
11347;BME280;5728;42.722;23.258;2023-09-18T12:45:38;95059.16;;;30.89;38.10
11347;BME280;5728;42.722;23.258;2023-09-18T12:48:06;95054.25;;;29.85;39.29
11347;BME280;5728;42.722;23.258;2023-09-18T12:50:32;95051.25;;;30.78;38.03
11347;BME280;5728;42.722;23.258;2023-09-18T12:53:10;95044.53;;;30.44;37.75
11347;BME280;5728;42.722;23.258;2023-09-18T12:55:37;95050.25;;;30.70;37.58
11347;BME280;5728;42.722;23.258;2023-09-18T12:58:05;95043.03;;;30.51;37.40
11347;BME280;5728;42.722;23.258;2023-09-18T13:00:34;95050.63;;;30.46;37.11
11347;BME280;5728;42.722;23.258;2023-09-18T13:03:01;95043.75;;;30.23;37.02